Time;durP1;ratioP1;P1;durP2;ratioP2;P2;SDS_P1;SDS_P2;PMS_P1;PMS_P2;Temp;Humidity;BMP_temperature;BMP_pressure;BME280_temperature;BME280_humidity;BME280_pressure;Samples;Min_cycle;Max_cycle;Signal;HPM_P1;HPM_P2
2021/09/23 00:00:50;;;;;;;16.47;13.50;;;11.50;99.90;;;;;;5046891;28;20207;-70
2021/09/23 00:03:43;;;;;;;16.93;13.27;;;11.50;99.90;;;;;;5046529;28;20200;-70
2021/09/23 00:06:01;;;;;;;17.20;13.40;;;11.50;99.90;;;;;;5044971;28;20414;-69
2021/09/23 00:08:27;;;;;;;17.63;13.03;;;11.40;99.90;;;;;;5047242;28;20436;-69
2021/09/23 00:10:52;;;;;;;18.87;14.60;;;11.40;99.90;;;;;;5046736;28;20733;-69
2021/09/23 00:13:18;;;;;;;17.97;14.43;;;11.40;99.90;;;;;;5045411;28;20176;-69
2021/09/23 00:15:44;;;;;;;18.47;14.43;;;11.40;99.90;;;;;;5044380;28;20184;-69
2021/09/23 00:18:13;;;;;;;17.97;13.67;;;11.30;99.90;;;;;;5044480;28;20631;-70
2021/09/23 00:20:42;;;;;;;15.80;12.50;;;11.30;99.90;;;;;;5047288;28;20192;-69
2021/09/23 00:23:09;;;;;;;19.83;14.60;;;11.30;99.90;;;;;;5044731;28;20469;-70
2021/09/23 00:25:35;;;;;;;19.17;14.67;;;11.30;99.90;;;;;;5046066;28;20435;-69
2021/09/23 00:28:03;;;;;;;19.53;15.70;;;11.30;99.90;;;;;;5046580;28;20498;-70
2021/09/23 00:30:29;;;;;;;20.17;15.13;;;11.30;99.90;;;;;;5047440;28;20412;-69
2021/09/23 00:32:55;;;;;;;21.53;15.70;;;11.30;99.90;;;;;;5045939;28;20434;-69
2021/09/23 00:35:21;;;;;;;22.20;16.03;;;11.30;99.90;;;;;;5035014;28;20592;-69
2021/09/23 00:37:47;;;;;;;19.10;14.73;;;11.30;99.90;;;;;;5032310;28;20436;-69
2021/09/23 00:40:13;;;;;;;20.30;15.67;;;11.30;99.90;;;;;;5032417;28;20923;-69
2021/09/23 00:42:41;;;;;;;20.87;15.87;;;11.30;99.90;;;;;;5030876;28;20461;-69
2021/09/23 00:45:08;;;;;;;22.60;17.50;;;11.30;99.90;;;;;;5032206;28;20419;-69
2021/09/23 00:47:34;;;;;;;20.37;14.27;;;11.30;99.90;;;;;;5030599;28;20469;-69
2021/09/23 00:50:00;;;;;;;24.90;16.60;;;11.30;99.90;;;;;;5033873;28;20873;-69
2021/09/23 00:52:27;;;;;;;23.40;16.03;;;11.30;99.90;;;;;;5031613;28;20219;-69
2021/09/23 00:54:55;;;;;;;23.63;16.93;;;11.30;99.90;;;;;;5034187;28;20835;-69
2021/09/23 00:57:21;;;;;;;19.13;15.67;;;11.30;99.90;;;;;;5032487;28;20805;-69
2021/09/23 00:59:48;;;;;;;22.77;16.70;;;11.30;99.90;;;;;;5032481;28;20443;-69
2021/09/23 01:02:14;;;;;;;22.73;16.80;;;11.30;99.90;;;;;;5029492;28;20492;-69
2021/09/23 01:04:44;;;;;;;19.97;14.00;;;11.20;99.90;;;;;;5032884;28;20773;-69
2021/09/23 01:07:12;;;;;;;20.20;15.20;;;11.20;99.90;;;;;;5032796;28;20435;-69
2021/09/23 01:09:42;;;;;;;18.90;14.00;;;11.20;99.90;;;;;;5033195;28;20421;-69
2021/09/23 01:12:08;;;;;;;17.47;14.10;;;11.20;99.90;;;;;;5033939;28;20436;-69
2021/09/23 01:14:34;;;;;;;17.70;14.73;;;11.20;99.90;;;;;;5032461;28;20425;-69
2021/09/23 01:16:59;;;;;;;23.70;17.67;;;11.20;99.90;;;;;;5032286;28;20276;-69
2021/09/23 01:19:25;;;;;;;35.77;24.57;;;11.20;99.90;;;;;;5031360;28;20181;-69
2021/09/23 01:21:50;;;;;;;27.00;19.67;;;11.10;99.90;;;;;;5031987;28;20199;-69
2021/09/23 01:24:16;;;;;;;29.17;19.97;;;11.10;99.90;;;;;;5033164;28;20217;-69
2021/09/23 01:26:46;;;;;;;21.37;16.07;;;11.10;99.90;;;;;;5031818;28;20191;-70
2021/09/23 01:29:11;;;;;;;20.63;15.73;;;11.00;99.90;;;;;;5033112;28;20183;-69
2021/09/23 01:31:37;;;;;;;19.57;15.40;;;11.00;99.90;;;;;;5028374;28;20934;-69
2021/09/23 01:34:03;;;;;;;18.53;15.20;;;11.00;99.90;;;;;;5032465;28;20186;-69
2021/09/23 01:36:28;;;;;;;17.77;14.83;;;11.00;99.90;;;;;;5030011;28;20202;-69
2021/09/23 01:38:54;;;;;;;21.43;16.03;;;10.90;99.90;;;;;;5031730;28;20186;-69
2021/09/23 01:41:19;;;;;;;20.00;15.97;;;10.90;99.90;;;;;;5032154;28;20196;-69
2021/09/23 01:43:45;;;;;;;20.93;16.07;;;10.90;99.90;;;;;;5031245;28;20205;-69
2021/09/23 01:46:10;;;;;;;19.00;15.10;;;10.90;99.90;;;;;;5031097;28;20181;-69
2021/09/23 01:48:36;;;;;;;21.93;15.60;;;10.90;99.90;;;;;;5029946;28;20186;-69
2021/09/23 01:51:01;;;;;;;25.50;16.50;;;10.90;99.90;;;;;;5028440;28;20338;-69
2021/09/23 01:53:27;;;;;;;23.60;17.17;;;10.90;99.90;;;;;;5032186;28;20678;-69
2021/09/23 01:55:53;;;;;;;20.57;15.70;;;10.90;99.90;;;;;;5029484;28;20193;-69
2021/09/23 01:58:18;;;;;;;21.53;17.20;;;10.90;99.90;;;;;;5030993;28;20192;-69
2021/09/23 02:00:44;;;;;;;19.80;15.93;;;10.90;99.90;;;;;;5030753;28;20651;-69
2021/09/23 02:03:09;;;;;;;22.40;17.67;;;10.90;99.90;;;;;;5030782;28;20293;-69
2021/09/23 02:05:36;;;;;;;22.70;17.20;;;10.90;99.90;;;;;;5031094;28;20184;-69
2021/09/23 02:08:01;;;;;;;25.47;18.13;;;10.90;99.90;;;;;;5031947;28;20700;-69
2021/09/23 02:10:27;;;;;;;24.70;16.63;;;10.90;99.90;;;;;;5030432;28;20557;-69
2021/09/23 02:12:55;;;;;;;22.27;15.60;;;10.90;99.90;;;;;;5034161;28;20554;-69
2021/09/23 02:15:21;;;;;;;23.07;17.90;;;10.90;99.90;;;;;;5031012;28;20183;-70
2021/09/23 02:17:47;;;;;;;19.93;17.43;;;10.80;99.90;;;;;;5032389;28;20786;-70
2021/09/23 02:20:13;;;;;;;22.40;17.57;;;10.80;99.90;;;;;;5031591;28;20442;-69
2021/09/23 02:22:38;;;;;;;25.33;16.63;;;10.80;99.90;;;;;;5032397;28;20212;-69
2021/09/23 02:25:04;;;;;;;22.70;17.77;;;10.80;99.90;;;;;;5031273;28;20428;-69
2021/09/23 02:27:31;;;;;;;21.03;16.77;;;10.80;99.90;;;;;;5031244;28;20592;-69
2021/09/23 02:29:56;;;;;;;21.00;16.77;;;10.80;99.90;;;;;;5031318;28;20422;-69
2021/09/23 02:32:22;;;;;;;19.57;16.17;;;10.80;99.90;;;;;;5029700;28;20776;-69
2021/09/23 02:34:48;;;;;;;19.90;16.77;;;10.80;99.90;;;;;;5030655;28;20185;-69
2021/09/23 02:37:13;;;;;;;19.30;15.60;;;10.70;99.90;;;;;;5030704;28;20190;-69
2021/09/23 02:39:39;;;;;;;20.53;15.90;;;10.80;99.90;;;;;;5031344;28;20235;-70
2021/09/23 02:42:04;;;;;;;22.50;17.30;;;10.70;99.90;;;;;;5032610;28;20793;-72
2021/09/23 02:44:30;;;;;;;19.93;15.27;;;10.70;99.90;;;;;;5031897;28;20379;-72
2021/09/23 02:46:56;;;;;;;20.47;15.97;;;10.70;99.90;;;;;;5030652;28;20184;-72
2021/09/23 02:49:21;;;;;;;22.50;17.47;;;10.70;99.90;;;;;;5032055;28;20225;-72
2021/09/23 02:51:47;;;;;;;21.80;15.90;;;10.70;99.90;;;;;;5031900;28;20213;-72
2021/09/23 02:54:12;;;;;;;22.20;16.93;;;10.70;99.90;;;;;;5030920;28;20200;-72
2021/09/23 02:56:38;;;;;;;23.67;17.00;;;10.70;99.90;;;;;;5030424;28;20589;-72
2021/09/23 02:59:03;;;;;;;20.03;15.53;;;10.70;99.90;;;;;;5029223;28;20229;-72
2021/09/23 03:01:29;;;;;;;21.53;16.50;;;10.70;99.90;;;;;;5031202;28;20196;-72
2021/09/23 03:03:55;;;;;;;19.47;14.73;;;10.70;99.90;;;;;;5029637;28;20665;-72
2021/09/23 03:06:20;;;;;;;20.80;16.20;;;10.70;99.90;;;;;;5031582;28;20192;-72
2021/09/23 03:08:46;;;;;;;19.73;15.23;;;10.70;99.90;;;;;;5029537;28;20316;-72
2021/09/23 03:11:11;;;;;;;22.20;16.40;;;10.70;99.90;;;;;;5031656;28;20239;-72
2021/09/23 03:13:37;;;;;;;22.23;15.03;;;10.70;99.90;;;;;;5030961;28;20195;-72
2021/09/23 03:16:04;;;;;;;25.67;14.90;;;10.70;99.90;;;;;;5031519;28;20194;-72
2021/09/23 03:18:30;;;;;;;21.00;16.60;;;10.70;99.90;;;;;;5030625;28;20415;-72
2021/09/23 03:20:56;;;;;;;24.40;17.20;;;10.80;99.90;;;;;;5028935;28;20826;-72
2021/09/23 03:23:22;;;;;;;17.60;14.93;;;10.80;99.90;;;;;;5027160;28;20611;-72
2021/09/23 03:25:49;;;;;;;21.57;15.97;;;10.80;99.90;;;;;;5028822;28;20912;-72
2021/09/23 03:28:15;;;;;;;19.80;15.87;;;10.80;99.90;;;;;;5028840;28;20746;-72
2021/09/23 03:30:41;;;;;;;20.93;14.37;;;10.80;99.90;;;;;;5029092;28;20426;-72
2021/09/23 03:33:07;;;;;;;18.47;15.20;;;10.80;99.90;;;;;;5029036;28;20538;-72
2021/09/23 03:35:33;;;;;;;17.20;14.00;;;10.80;99.90;;;;;;5029500;28;20975;-72
2021/09/23 03:37:59;;;;;;;20.07;14.43;;;10.80;99.90;;;;;;5030381;28;20450;-72
2021/09/23 03:40:26;;;;;;;14.40;12.90;;;10.80;99.90;;;;;;5028803;28;20437;-72
2021/09/23 03:42:52;;;;;;;17.10;13.83;;;10.80;99.90;;;;;;5030050;28;20506;-72
2021/09/23 03:45:18;;;;;;;17.40;13.13;;;10.80;99.90;;;;;;5030020;28;20454;-72
2021/09/23 03:47:43;;;;;;;15.83;14.20;;;10.80;99.90;;;;;;5029054;28;20173;-72
2021/09/23 03:50:10;;;;;;;18.43;13.03;;;10.90;99.90;;;;;;5026543;28;20227;-72
2021/09/23 03:52:36;;;;;;;17.70;13.13;;;10.80;99.90;;;;;;5029904;28;20206;-72
2021/09/23 03:55:02;;;;;;;16.80;13.30;;;10.90;99.90;;;;;;5027408;28;20432;-72
2021/09/23 03:57:27;;;;;;;15.23;12.33;;;10.90;99.90;;;;;;5028777;28;20184;-72
2021/09/23 03:59:53;;;;;;;14.13;12.13;;;10.80;99.90;;;;;;5029940;28;20777;-72
2021/09/23 04:02:19;;;;;;;15.87;13.63;;;10.90;99.90;;;;;;5027749;28;20254;-72
2021/09/23 04:04:45;;;;;;;15.13;13.30;;;10.90;99.90;;;;;;5028150;28;20188;-72
2021/09/23 04:07:11;;;;;;;15.97;13.17;;;10.90;99.90;;;;;;5029874;28;20181;-72
2021/09/23 04:09:37;;;;;;;16.03;13.00;;;10.90;99.90;;;;;;5031465;28;20433;-72
2021/09/23 04:12:03;;;;;;;16.60;13.00;;;10.90;99.90;;;;;;5035440;28;20177;-72
2021/09/23 04:14:29;;;;;;;13.77;11.90;;;10.90;99.90;;;;;;5032398;28;20518;-72
2021/09/23 04:16:55;;;;;;;16.10;13.30;;;10.90;99.90;;;;;;5031699;28;20451;-72
2021/09/23 04:19:21;;;;;;;14.03;11.90;;;10.90;99.90;;;;;;5030394;28;20181;-72
2021/09/23 04:21:47;;;;;;;14.27;12.60;;;10.90;99.90;;;;;;5031107;28;20437;-71
2021/09/23 04:24:12;;;;;;;13.07;11.33;;;10.90;99.90;;;;;;5031581;28;20216;-71
2021/09/23 04:26:38;;;;;;;15.87;12.10;;;10.80;99.90;;;;;;5032325;28;20507;-71
2021/09/23 04:29:04;;;;;;;15.23;12.70;;;10.90;99.90;;;;;;5032968;28;20189;-71
2021/09/23 04:31:29;;;;;;;14.90;11.90;;;10.80;99.90;;;;;;5029284;28;20852;-71
2021/09/23 04:33:55;;;;;;;12.40;11.10;;;10.80;99.90;;;;;;5034358;28;20181;-71
2021/09/23 04:36:21;;;;;;;16.47;13.97;;;10.80;99.90;;;;;;5031764;28;20185;-71
2021/09/23 04:38:46;;;;;;;12.63;11.03;;;10.80;99.90;;;;;;5030700;28;20186;-71
2021/09/23 04:41:12;;;;;;;13.43;12.03;;;10.90;99.90;;;;;;5031276;28;20197;-71
2021/09/23 04:43:40;;;;;;;14.00;11.60;;;10.80;99.90;;;;;;5034198;28;20259;-71
2021/09/23 04:46:06;;;;;;;14.03;11.97;;;10.80;99.90;;;;;;5037306;28;20182;-71
2021/09/23 04:48:32;;;;;;;14.93;12.93;;;10.80;99.90;;;;;;5032377;28;20435;-71
2021/09/23 04:50:57;;;;;;;14.27;11.97;;;10.80;99.90;;;;;;5025890;28;20187;-71
2021/09/23 04:53:23;;;;;;;14.27;12.07;;;10.80;99.90;;;;;;5026540;28;20184;-71
2021/09/23 04:55:48;;;;;;;13.83;12.23;;;10.80;99.90;;;;;;5027724;28;20181;-71
2021/09/23 04:58:14;;;;;;;14.10;11.70;;;10.80;99.90;;;;;;5029788;28;20177;-71
2021/09/23 05:00:40;;;;;;;14.93;12.80;;;10.80;99.90;;;;;;5033069;28;20189;-71
2021/09/23 05:03:06;;;;;;;16.27;13.00;;;10.80;99.90;;;;;;5029343;28;20209;-71
2021/09/23 05:05:31;;;;;;;13.53;11.83;;;10.80;99.90;;;;;;5032902;28;20288;-71
2021/09/23 05:07:57;;;;;;;12.60;11.27;;;10.80;99.90;;;;;;5032620;28;20525;-71
2021/09/23 05:10:23;;;;;;;13.93;10.80;;;10.80;99.90;;;;;;5033345;28;20243;-71
2021/09/23 05:12:48;;;;;;;17.47;13.03;;;10.80;99.90;;;;;;5034582;28;20462;-71
2021/09/23 05:15:14;;;;;;;13.17;11.40;;;10.80;99.90;;;;;;5032855;28;20191;-71
2021/09/23 05:17:40;;;;;;;13.87;12.43;;;10.80;99.90;;;;;;5032940;28;20182;-72
2021/09/23 05:20:07;;;;;;;13.93;11.83;;;10.80;99.90;;;;;;5032456;28;20254;-71
2021/09/23 05:22:33;;;;;;;13.80;11.40;;;10.80;99.90;;;;;;5032998;28;20269;-71
2021/09/23 05:24:59;;;;;;;13.33;10.60;;;10.80;99.90;;;;;;5033382;28;20457;-71
2021/09/23 05:27:24;;;;;;;14.43;11.03;;;10.80;99.90;;;;;;5031768;28;20248;-71
2021/09/23 05:29:50;;;;;;;14.70;11.40;;;10.90;99.90;;;;;;5030984;28;20259;-71
2021/09/23 05:32:15;;;;;;;11.77;10.57;;;10.90;99.90;;;;;;5029743;28;20184;-72
2021/09/23 05:34:41;;;;;;;17.87;10.87;;;10.90;99.90;;;;;;5030008;28;20255;-71
2021/09/23 05:37:07;;;;;;;13.33;10.93;;;10.90;99.90;;;;;;5034015;28;20636;-71
2021/09/23 05:39:32;;;;;;;17.93;11.13;;;10.90;99.90;;;;;;5031515;28;20178;-71
2021/09/23 05:41:58;;;;;;;13.93;11.33;;;10.90;99.90;;;;;;5032357;28;20904;-71
2021/09/23 05:44:23;;;;;;;15.30;10.43;;;10.90;99.90;;;;;;5029880;28;20217;-71
2021/09/23 05:46:51;;;;;;;11.90;10.00;;;10.90;99.90;;;;;;5032514;28;20587;-71
2021/09/23 05:49:17;;;;;;;11.80;9.17;;;10.90;99.90;;;;;;5028249;28;20659;-71
2021/09/23 05:51:43;;;;;;;9.93;8.67;;;11.00;99.90;;;;;;5027611;28;20429;-73
2021/09/23 05:54:08;;;;;;;10.17;9.13;;;11.00;99.90;;;;;;5026434;28;20247;-73
2021/09/23 05:56:33;;;;;;;10.50;9.40;;;11.00;99.90;;;;;;5029592;28;20251;-73
2021/09/23 05:58:59;;;;;;;10.67;8.67;;;11.10;99.90;;;;;;5030767;28;20201;-73
2021/09/23 06:01:25;;;;;;;10.53;8.53;;;11.10;99.90;;;;;;5031194;28;20540;-73
2021/09/23 06:03:50;;;;;;;11.17;9.30;;;11.10;99.90;;;;;;5028250;28;20203;-73
2021/09/23 06:06:16;;;;;;;12.20;9.20;;;11.20;99.90;;;;;;5028337;28;20276;-73
2021/09/23 06:08:42;;;;;;;14.00;9.80;;;11.20;99.90;;;;;;5030252;28;20191;-73
2021/09/23 06:11:10;;;;;;;10.13;8.90;;;11.20;99.90;;;;;;5027620;28;20187;-73
2021/09/23 06:13:36;;;;;;;12.03;8.83;;;11.30;99.90;;;;;;5027830;28;20446;-72
2021/09/23 06:16:01;;;;;;;10.80;9.30;;;11.30;99.90;;;;;;5030424;28;21463;-72
2021/09/23 06:18:27;;;;;;;10.43;8.57;;;11.30;99.90;;;;;;5029140;28;20537;-72
2021/09/23 06:20:53;;;;;;;10.07;8.97;;;11.40;99.90;;;;;;5028252;28;20183;-72
2021/09/23 06:23:18;;;;;;;9.73;8.03;;;11.40;99.90;;;;;;5030602;28;20203;-73
2021/09/23 06:25:44;;;;;;;10.30;8.70;;;11.50;99.90;;;;;;5026607;28;20185;-72
2021/09/23 06:28:10;;;;;;;10.17;8.60;;;11.60;99.90;;;;;;5024702;28;20214;-72
2021/09/23 06:30:37;;;;;;;11.53;8.70;;;11.60;99.90;;;;;;5026082;28;20260;-72
2021/09/23 06:33:02;;;;;;;10.50;8.57;;;11.70;99.90;;;;;;5026964;28;20435;-72
2021/09/23 06:35:28;;;;;;;11.10;8.77;;;11.80;99.90;;;;;;5030573;28;20433;-72
2021/09/23 06:37:54;;;;;;;11.77;9.00;;;11.90;99.90;;;;;;5028946;28;20273;-73
2021/09/23 06:40:19;;;;;;;11.03;8.47;;;11.90;99.90;;;;;;5029149;28;20230;-73
2021/09/23 06:42:45;;;;;;;10.30;8.13;;;12.00;99.90;;;;;;5029229;28;20687;-73
2021/09/23 06:45:11;;;;;;;11.53;8.33;;;12.00;99.90;;;;;;5027882;28;20181;-72
2021/09/23 06:47:37;;;;;;;8.07;7.17;;;12.10;99.90;;;;;;5025004;28;20208;-73
2021/09/23 06:50:03;;;;;;;11.00;8.37;;;12.20;99.90;;;;;;5022331;28;20478;-72
2021/09/23 06:52:29;;;;;;;10.20;8.27;;;12.30;99.90;;;;;;5029050;28;20617;-73
2021/09/23 06:54:55;;;;;;;11.27;8.20;;;12.30;99.90;;;;;;5025893;28;20471;-73
2021/09/23 06:57:20;;;;;;;13.17;8.70;;;12.40;99.90;;;;;;5025186;28;20547;-73
2021/09/23 06:59:46;;;;;;;10.83;7.30;;;12.50;99.90;;;;;;5025997;28;20536;-73
2021/09/23 07:02:11;;;;;;;9.47;7.37;;;12.60;99.90;;;;;;5024632;28;20267;-73
2021/09/23 07:04:37;;;;;;;10.50;7.10;;;12.70;99.90;;;;;;5023131;28;20224;-73
2021/09/23 07:07:03;;;;;;;8.37;7.10;;;12.80;99.90;;;;;;5026089;28;20698;-73
2021/09/23 07:09:28;;;;;;;11.07;7.70;;;12.80;99.90;;;;;;5026235;28;20224;-73
2021/09/23 07:11:55;;;;;;;9.93;6.80;;;12.90;99.90;;;;;;5028003;28;20542;-73
2021/09/23 07:14:21;;;;;;;11.37;7.80;;;13.00;99.90;;;;;;5027785;28;20214;-73
2021/09/23 07:16:46;;;;;;;11.00;6.80;;;13.00;99.90;;;;;;5028821;28;20462;-73
2021/09/23 07:19:12;;;;;;;8.40;6.63;;;13.10;99.90;;;;;;5022599;28;20254;-73
2021/09/23 07:21:38;;;;;;;8.80;6.83;;;13.20;99.90;;;;;;5025258;28;20659;-73
2021/09/23 07:24:04;;;;;;;12.60;7.03;;;13.30;99.90;;;;;;5025870;28;20208;-73
2021/09/23 07:26:31;;;;;;;11.00;7.37;;;13.30;99.90;;;;;;5028436;28;20432;-73
2021/09/23 07:28:57;;;;;;;7.60;6.23;;;13.40;99.90;;;;;;5026236;28;20661;-73
2021/09/23 07:31:23;;;;;;;12.70;6.30;;;13.40;99.90;;;;;;5029743;28;20439;-73
2021/09/23 07:33:50;;;;;;;11.60;7.13;;;13.50;99.90;;;;;;5027616;28;20912;-73
2021/09/23 07:36:16;;;;;;;10.03;7.00;;;13.60;99.90;;;;;;5030109;28;20177;-73
2021/09/23 07:38:42;;;;;;;12.30;6.60;;;13.70;99.90;;;;;;5030031;28;20508;-73
2021/09/23 07:41:07;;;;;;;9.43;7.10;;;13.70;99.90;;;;;;5026732;28;20853;-73
2021/09/23 07:43:33;;;;;;;9.70;7.00;;;13.80;99.90;;;;;;5029952;28;20201;-73
2021/09/23 07:45:59;;;;;;;9.70;6.67;;;13.90;99.90;;;;;;5034292;28;20259;-73
2021/09/23 07:48:24;;;;;;;9.27;7.17;;;13.90;99.90;;;;;;5030656;28;20174;-73
2021/09/23 07:50:50;;;;;;;8.90;6.33;;;14.00;99.90;;;;;;5031888;28;20455;-73
2021/09/23 07:53:16;;;;;;;7.23;5.60;;;14.00;99.90;;;;;;5032517;28;20181;-73
2021/09/23 07:55:41;;;;;;;12.40;7.10;;;14.10;99.90;;;;;;5031849;28;20427;-73
2021/09/23 07:58:07;;;;;;;12.30;7.07;;;14.20;99.90;;;;;;5027176;28;20181;-73
2021/09/23 08:00:32;;;;;;;7.40;5.43;;;14.30;99.90;;;;;;5030464;28;20242;-73
2021/09/23 08:02:58;;;;;;;8.80;5.93;;;14.30;99.90;;;;;;5031394;28;20291;-73
2021/09/23 08:05:28;;;;;;;11.00;5.47;;;14.40;99.90;;;;;;5029544;28;20276;-73
2021/09/23 08:07:54;;;;;;;7.90;5.80;;;14.50;99.90;;;;;;5031859;28;20177;-73
2021/09/23 08:10:20;;;;;;;8.20;6.33;;;14.60;99.90;;;;;;5032937;28;20482;-73
2021/09/23 08:12:46;;;;;;;10.30;7.00;;;14.70;99.90;;;;;;5032645;28;20431;-73
2021/09/23 08:15:12;;;;;;;8.10;5.23;;;14.80;99.90;;;;;;5029067;28;20266;-73
2021/09/23 08:17:38;;;;;;;10.33;6.43;;;14.90;99.90;;;;;;5034322;28;20177;-73
2021/09/23 08:20:04;;;;;;;6.63;5.90;;;15.00;99.90;;;;;;5031105;28;20434;-73
2021/09/23 08:22:30;;;;;;;10.00;6.77;;;15.10;99.90;;;;;;5030306;28;20446;-73
2021/09/23 08:24:56;;;;;;;8.73;6.90;;;15.20;99.90;;;;;;5029481;28;20419;-73
2021/09/23 08:27:21;;;;;;;9.73;7.00;;;15.30;99.90;;;;;;5032620;28;20177;-73
2021/09/23 08:29:47;;;;;;;12.20;7.40;;;15.30;99.90;;;;;;5028440;28;20189;-73
2021/09/23 08:32:17;;;;;;;7.60;6.07;;;15.40;99.90;;;;;;5029026;28;20177;-73
2021/09/23 08:34:44;;;;;;;8.73;6.37;;;15.50;99.90;;;;;;5026726;28;20247;-73
2021/09/23 08:37:10;;;;;;;8.93;6.90;;;15.50;99.90;;;;;;5028255;28;20411;-73
2021/09/23 08:39:35;;;;;;;9.43;6.10;;;15.60;99.90;;;;;;5027304;28;20426;-73
2021/09/23 08:42:01;;;;;;;7.93;6.87;;;15.70;99.90;;;;;;5031294;28;20219;-73
2021/09/23 08:44:28;;;;;;;7.80;6.50;;;15.70;99.90;;;;;;5031577;28;20685;-73
2021/09/23 08:46:56;;;;;;;9.23;6.40;;;15.80;99.90;;;;;;5029626;28;20662;-73
2021/09/23 08:49:21;;;;;;;7.47;5.70;;;15.80;99.90;;;;;;5031923;28;20840;-73
2021/09/23 08:51:47;;;;;;;12.27;8.30;;;15.80;99.90;;;;;;5030462;28;20411;-73
2021/09/23 08:54:13;;;;;;;6.00;5.10;;;15.90;99.90;;;;;;5030286;28;20181;-73
2021/09/23 08:56:39;;;;;;;8.43;6.67;;;15.90;99.90;;;;;;5030683;28;20446;-73
2021/09/23 08:59:05;;;;;;;6.40;5.47;;;15.90;99.90;;;;;;5030546;28;21025;-74
2021/09/23 09:01:39;;;;;;;7.20;5.63;;;16.00;99.90;;;;;;5031138;28;20637;-73
2021/09/23 09:04:06;;;;;;;8.60;5.33;;;16.00;99.90;;;;;;5029535;28;20207;-73
2021/09/23 09:06:31;;;;;;;5.73;5.17;;;16.00;99.90;;;;;;5029317;28;20428;-73
2021/09/23 09:08:57;;;;;;;9.10;4.83;;;16.10;99.90;;;;;;5029507;28;20444;-73
2021/09/23 09:11:23;;;;;;;9.43;6.30;;;16.20;99.90;;;;;;5027977;28;20177;-73
2021/09/23 09:13:52;;;;;;;12.93;5.70;;;16.20;99.90;;;;;;5030146;28;20185;-73
2021/09/23 09:16:20;;;;;;;8.57;5.43;;;16.30;99.90;;;;;;5030154;28;20238;-73
2021/09/23 09:18:49;;;;;;;5.60;4.67;;;16.30;99.90;;;;;;5030543;28;20427;-73
2021/09/23 09:21:17;;;;;;;7.00;5.23;;;16.40;99.90;;;;;;5025222;28;20875;-73
2021/09/23 09:23:54;;;;;;;5.47;4.90;;;16.50;99.90;;;;;;5027333;28;20477;-73
2021/09/23 09:29:06;;;;;;;6.23;4.63;;;17.00;99.90;;;;;;5063715;28;20558;-74
2021/09/23 09:31:34;;;;;;;6.93;4.23;;;17.60;99.90;;;;;;5047338;28;20458;-73
2021/09/23 09:34:01;;;;;;;5.53;4.03;;;18.00;99.90;;;;;;5046702;28;20482;-74
2021/09/23 09:36:35;;;;;;;9.30;4.83;;;18.30;99.90;;;;;;5049534;28;20434;-73
2021/09/23 09:41:47;;;;;;;5.13;4.30;;;18.40;99.90;;;;;;5066350;28;20622;-73
2021/09/23 09:44:14;;;;;;;5.17;4.00;;;18.40;99.90;;;;;;5059630;28;20452;-73
2021/09/23 09:46:43;;;;;;;3.93;3.57;;;18.40;99.90;;;;;;5061075;28;20457;-73
2021/09/23 09:49:09;;;;;;;5.77;3.40;;;18.30;99.90;;;;;;5061958;28;20448;-73
2021/09/23 09:54:16;;;;;;;5.47;4.97;;;18.30;99.90;;;;;;5048608;28;20529;-73
2021/09/23 09:56:44;;;;;;;5.50;4.00;;;18.20;99.90;;;;;;5029008;28;20435;-73
2021/09/23 10:01:54;;;;;;;4.67;3.77;;;18.20;99.90;;;;;;5045142;28;21200;-74
2021/09/23 10:04:21;;;;;;;7.80;4.80;;;18.10;99.90;;;;;;5046501;28;20448;-74
2021/09/23 10:06:47;;;;;;;6.43;4.10;;;18.10;99.90;;;;;;5047327;28;21045;-73
2021/09/23 10:09:15;;;;;;;4.90;4.17;;;18.10;99.90;;;;;;5047302;28;20426;-73
2021/09/23 10:11:43;;;;;;;5.43;4.00;;;18.10;99.90;;;;;;5048024;28;20430;-73
2021/09/23 10:14:11;;;;;;;4.97;4.47;;;18.10;99.90;;;;;;5043904;28;20427;-73
2021/09/23 10:16:37;;;;;;;4.33;3.93;;;18.10;99.90;;;;;;5045910;28;20415;-73
2021/09/23 10:19:03;;;;;;;4.87;4.17;;;18.10;99.90;;;;;;5042334;28;20537;-73
2021/09/23 10:21:29;;;;;;;4.00;3.60;;;18.10;99.90;;;;;;5043630;28;20541;-73
2021/09/23 10:23:56;;;;;;;3.10;2.43;;;18.10;99.90;;;;;;5042265;28;20306;-73
2021/09/23 10:26:25;;;;;;;6.50;4.27;;;18.10;99.90;;;;;;5040695;28;20192;-73
2021/09/23 10:28:53;;;;;;;4.13;3.73;;;18.10;99.90;;;;;;5038327;28;20430;-72
2021/09/23 10:31:21;;;;;;;3.37;3.07;;;18.10;99.90;;;;;;5041258;28;20811;-73
2021/09/23 10:33:49;;;;;;;4.23;3.83;;;18.20;99.90;;;;;;5041316;28;20454;-74
2021/09/23 10:36:16;;;;;;;3.13;2.53;;;18.20;99.90;;;;;;5042835;28;20431;-73
2021/09/23 10:38:43;;;;;;;5.67;4.47;;;18.30;99.90;;;;;;5038739;28;20439;-73
2021/09/23 10:41:13;;;;;;;4.40;3.00;;;18.40;99.90;;;;;;5038756;28;21593;-73
2021/09/23 10:43:41;;;;;;;6.00;3.40;;;18.40;99.90;;;;;;5040780;28;20418;-73
2021/09/23 10:46:08;;;;;;;5.40;3.70;;;18.50;99.90;;;;;;5036799;28;20774;-74
2021/09/23 10:48:35;;;;;;;3.73;3.30;;;18.50;99.90;;;;;;5040192;28;20411;-73
2021/09/23 10:51:05;;;;;;;4.00;2.90;;;18.50;99.90;;;;;;5037769;28;20441;-73
2021/09/23 10:53:33;;;;;;;3.93;3.50;;;18.50;99.90;;;;;;5039195;28;20442;-73
2021/09/23 10:56:04;;;;;;;5.50;3.50;;;18.50;99.90;;;;;;5039291;28;20427;-73
2021/09/23 10:58:30;;;;;;;4.53;2.70;;;18.50;99.90;;;;;;5039319;28;20435;-73
2021/09/23 11:00:59;;;;;;;6.00;4.70;;;18.50;99.90;;;;;;5034580;28;20470;-73
2021/09/23 11:03:31;;;;;;;5.50;3.97;;;18.50;99.90;;;;;;5037921;28;20438;-73
2021/09/23 11:05:57;;;;;;;6.17;3.93;;;18.40;99.90;;;;;;5037754;28;20415;-73
2021/09/23 11:08:23;;;;;;;5.13;3.60;;;18.40;99.90;;;;;;5036029;28;20441;-73
2021/09/23 11:10:49;;;;;;;10.67;3.30;;;18.30;99.90;;;;;;5040151;28;20220;-73
2021/09/23 11:13:17;;;;;;;4.93;3.87;;;18.30;99.90;;;;;;5032005;28;20951;-73
2021/09/23 11:15:44;;;;;;;4.93;3.63;;;18.30;99.90;;;;;;5029235;28;22060;-73
2021/09/23 11:18:10;;;;;;;3.97;2.73;;;18.20;99.90;;;;;;5025194;28;20574;-73
2021/09/23 11:20:38;;;;;;;4.10;2.87;;;18.30;99.90;;;;;;5024017;28;20464;-73
2021/09/23 11:23:07;;;;;;;2.97;2.60;;;18.20;99.90;;;;;;5027331;28;20423;-73
2021/09/23 11:25:35;;;;;;;3.97;2.43;;;18.20;99.90;;;;;;5029802;28;20900;-73
2021/09/23 11:28:02;;;;;;;4.00;2.50;;;18.10;99.90;;;;;;5029402;28;20428;-73
2021/09/23 11:30:31;;;;;;;3.53;3.23;;;18.10;99.90;;;;;;5029523;28;20427;-73
2021/09/23 11:33:00;;;;;;;3.57;3.20;;;18.10;99.90;;;;;;5022552;28;20447;-73
2021/09/23 11:35:29;;;;;;;2.70;2.27;;;18.10;99.90;;;;;;5028884;28;20420;-73
2021/09/23 11:37:56;;;;;;;3.43;2.63;;;18.10;99.90;;;;;;5020815;28;20460;-73
2021/09/23 11:40:24;;;;;;;3.70;3.37;;;18.10;99.90;;;;;;5025779;28;20448;-73
2021/09/23 11:42:50;;;;;;;2.40;2.20;;;18.20;99.90;;;;;;5025026;28;20424;-73
2021/09/23 11:45:19;;;;;;;3.13;2.40;;;18.10;99.90;;;;;;5025445;28;20443;-73
2021/09/23 11:47:52;;;;;;;5.40;2.73;;;18.10;99.90;;;;;;5026639;28;20188;-73
2021/09/23 11:50:23;;;;;;;4.43;3.47;;;18.20;99.90;;;;;;5025182;28;20442;-73
2021/09/23 11:52:53;;;;;;;3.93;3.40;;;18.10;99.90;;;;;;5027946;28;20441;-73
2021/09/23 11:55:18;;;;;;;5.10;3.93;;;18.20;99.90;;;;;;5025639;28;20837;-73
2021/09/23 11:57:44;;;;;;;8.33;3.60;;;18.10;99.90;;;;;;5025936;28;20474;-73
2021/09/23 12:00:10;;;;;;;4.10;3.33;;;18.10;99.90;;;;;;5030211;28;20201;-74
2021/09/23 12:02:36;;;;;;;4.93;4.07;;;18.10;99.90;;;;;;5022954;28;20618;-73
2021/09/23 12:05:02;;;;;;;4.20;2.80;;;18.10;99.90;;;;;;5025265;28;20462;-73
2021/09/23 12:07:28;;;;;;;5.50;3.40;;;18.10;99.90;;;;;;5025184;28;20178;-73
2021/09/23 12:10:06;;;;;;;2.70;2.03;;;18.10;99.90;;;;;;5023837;28;20443;-73
2021/09/23 12:12:31;;;;;;;4.57;3.63;;;18.10;99.90;;;;;;5026120;28;20424;-73
2021/09/23 12:14:57;;;;;;;3.67;2.90;;;18.10;99.90;;;;;;5019124;28;20501;-73
2021/09/23 12:17:23;;;;;;;3.90;2.80;;;18.10;99.90;;;;;;5025228;28;20188;-73
2021/09/23 12:19:54;;;;;;;3.90;3.10;;;18.00;99.90;;;;;;5025073;28;20452;-73
2021/09/23 12:22:29;;;;;;;3.73;3.00;;;18.10;99.90;;;;;;5027072;28;20173;-73
2021/09/23 12:24:54;;;;;;;3.27;2.53;;;18.10;99.90;;;;;;5020355;28;20419;-73
2021/09/23 12:27:21;;;;;;;4.43;3.93;;;18.10;99.90;;;;;;5023801;28;20446;-73
2021/09/23 12:29:51;;;;;;;5.83;4.50;;;18.10;99.90;;;;;;5021678;28;20177;-73
2021/09/23 12:32:17;;;;;;;3.53;2.83;;;18.10;99.90;;;;;;5020274;28;20452;-73
2021/09/23 12:34:46;;;;;;;2.90;2.60;;;18.10;99.90;;;;;;5024997;28;20483;-73
2021/09/23 12:37:12;;;;;;;2.70;2.50;;;18.10;99.90;;;;;;5021603;28;20432;-73
2021/09/23 12:39:47;;;;;;;2.70;2.20;;;18.10;99.90;;;;;;5018357;28;20485;-73
2021/09/23 12:50:28;;;;;;;3.50;3.10;;;18.10;99.90;;;;;;5062212;28;20652;-73